TimeEST,TemperatureF,Dew PointF,Humidity,Sea Level PressureIn,VisibilityMPH,Wind Direction,Wind SpeedMPH,Gust SpeedMPH,PrecipitationIn,Events,Conditions,WindDirDegrees,DateUTC
12:51 AM,39.0,28.9,67,30.27,10.0,Calm,Calm,-,N/A,,Partly Cloudy,0,2012-12-01 05:51:00
1:51 AM,37.0,28.0,70,30.27,10.0,Calm,Calm,-,N/A,,Clear,0,2012-12-01 06:51:00
2:51 AM,35.1,28.0,76,30.28,10.0,Calm,Calm,-,N/A,,Clear,0,2012-12-01 07:51:00
3:51 AM,37.0,28.9,73,30.27,10.0,Calm,Calm,-,N/A,,Scattered Clouds,0,2012-12-01 08:51:00
4:51 AM,36.0,28.0,73,30.30,10.0,Calm,Calm,-,N/A,,Overcast,0,2012-12-01 09:51:00
5:51 AM,34.0,28.0,79,30.32,10.0,Calm,Calm,-,N/A,,Mostly Cloudy,0,2012-12-01 10:51:00
6:51 AM,34.0,28.0,79,30.33,10.0,Calm,Calm,-,N/A,,Mostly Cloudy,0,2012-12-01 11:51:00
7:51 AM,35.1,28.9,78,30.34,10.0,Calm,Calm,-,N/A,,Scattered Clouds,0,2012-12-01 12:51:00
8:51 AM,37.9,30.9,76,30.34,10.0,Calm,Calm,-,N/A,,Partly Cloudy,0,2012-12-01 13:51:00
9:51 AM,45.0,33.1,63,30.35,10.0,Calm,Calm,-,N/A,,Partly Cloudy,0,2012-12-01 14:51:00
10:51 AM,50.0,35.1,57,30.34,10.0,South,5.8,-,N/A,,Scattered Clouds,190,2012-12-01 15:51:00
11:51 AM,54.0,37.0,53,30.32,10.0,South,8.1,-,N/A,,Overcast,190,2012-12-01 16:51:00
12:51 PM,55.0,37.0,51,30.30,10.0,SW,10.4,-,N/A,,Overcast,220,2012-12-01 17:51:00
1:51 PM,55.9,37.0,49,30.28,10.0,SSW,6.9,-,N/A,,Overcast,210,2012-12-01 18:51:00
2:51 PM,57.0,37.9,49,30.28,10.0,SSW,6.9,-,N/A,,Mostly Cloudy,200,2012-12-01 19:51:00
3:51 PM,57.9,37.9,47,30.27,10.0,SSW,9.2,-,N/A,,Scattered Clouds,200,2012-12-01 20:51:00
4:51 PM,55.9,39.0,53,30.27,10.0,South,3.5,-,N/A,,Mostly Cloudy,180,2012-12-01 21:51:00
5:51 PM,53.1,37.9,57,30.29,10.0,South,3.5,-,N/A,,Mostly Cloudy,180,2012-12-01 22:51:00
6:51 PM,50.0,37.9,63,30.29,10.0,SSE,4.6,-,N/A,,Mostly Cloudy,160,2012-12-01 23:51:00
7:51 PM,48.9,37.0,64,30.29,10.0,South,3.5,-,N/A,,Scattered Clouds,170,2012-12-02 00:51:00
8:51 PM,48.9,37.0,64,30.28,10.0,South,4.6,-,N/A,,Mostly Cloudy,170,2012-12-02 01:51:00
9:51 PM,48.0,37.0,66,30.27,10.0,South,3.5,-,N/A,,Mostly Cloudy,180,2012-12-02 02:51:00
11:51 PM,45.0,37.0,74,30.25,10.0,SE,3.5,-,N/A,,Overcast,140,2012-12-02 04:51:00